This is the latest recevied weather packets stored in our database for station/object N8DMH-13. If no packets are shown the sender has not sent any weather packets the latest 1 day(s).
| Time | Temp. | Humidity | Pressure | Rain* | Wind** | Luminosity | Snow |
|---|---|---|---|---|---|---|---|
| 1778036417 | 4.44° C | 78% | 1010 hPa | 0 mm | 0.45 m/s, 270° | - | - |
| 1778036117 | 4.44° C | 78% | 1010 hPa | 0 mm | 0.45 m/s, 292° | - | - |
| 1778035786 | 4.44° C | 77% | 1010 hPa | 0 mm | 0.45 m/s, 45° | - | - |
| 1778035456 | 4.44° C | 77% | 1010 hPa | 0 mm | 0.45 m/s, 112° | - | - |
| 1778035156 | 4.44° C | 76% | 1009.9 hPa | 0 mm | 0.45 m/s, 68° | - | - |
| 1778034826 | 5° C | 76% | 1009.9 hPa | 0 mm | 0.45 m/s, 270° | - | - |
| 1778034526 | 5° C | 76% | 1009.7 hPa | 0 mm | 0.89 m/s, 315° | - | - |
| 1778034196 | 5° C | 74% | 1009.5 hPa | 0 mm | 0.89 m/s, 292° | - | - |
| 1778033896 | 5° C | 73% | 1009.6 hPa | 0 mm | 0.89 m/s, 270° | - | - |
| 1778033566 | 5.56° C | 71% | 1009.3 hPa | 0 mm | 0.89 m/s, 270° | - | - |
| 1778033265 | 6.11° C | 70% | 1009.2 hPa | 0 mm | 1.34 m/s, 270° | - | - |
| 1778032935 | 6.67° C | 67% | 1009.1 hPa | 0 mm | 0.89 m/s, 315° | - | - |
| 1778032635 | 7.78° C | 64% | 1008.9 hPa | 0 mm | 0.89 m/s, 292° | - | - |
| 1778032335 | 8.89° C | 58% | 1008.8 hPa | 0 mm | 0.45 m/s, 338° | - | - |
| 1778032005 | 9.44° C | 49% | 1008.6 hPa | 0 mm | 0.45 m/s, 270° | - | - |
| 1778031705 | 9.44° C | 48% | 1008.6 hPa | 0 mm | 0.45 m/s, 248° | - | - |
| 1778031405 | 9.44° C | 47% | 1008.3 hPa | 0 mm | 0.89 m/s, 248° | - | - |
| 1778031075 | 9.44° C | 46% | 1008.2 hPa | 0 mm | 0.89 m/s, 248° | - | - |
| 1778030774 | 10° C | 46% | 1008.3 hPa | 0 mm | 0.89 m/s, 225° | - | - |
| 1778030474 | 10° C | 45% | 1008.1 hPa | 0 mm | 1.34 m/s, 225° | - | - |
| 1778030144 | 10° C | 44% | 1008 hPa | 0 mm | 0.89 m/s, 248° | - | - |
| 1778029844 | 10° C | 44% | 1008 hPa | 0 mm | 0.89 m/s, 225° | - | - |
| 1778029544 | 10° C | 44% | 1007.9 hPa | 0 mm | 0.89 m/s, 248° | - | - |
| 1778029214 | 10° C | 43% | 1007.9 hPa | 0 mm | 0.45 m/s, 248° | - | - |
| 1778028914 | 10.56° C | 42% | 1008.1 hPa | 0 mm | 0.89 m/s, 248° | - | - |
* Rain latest hour (hover to see other rain measurements)
** Current wind speed in m/s (hover to see current wind gust speed)